Time;durP1;ratioP1;P1;durP2;ratioP2;P2;SDS_P1;SDS_P2;PMS_P1;PMS_P2;Temp;Humidity;BMP_temperature;BMP_pressure;BME280_temperature;BME280_humidity;BME280_pressure;Samples;Min_cycle;Max_cycle;Signal;HPM_P1;HPM_P2
2022/10/21 00:01:29;;;;;;;0.00;0.00;;;11.50;99.90;;;;;;5114886;28;20418;-79
2022/10/21 00:03:55;;;;;;;0.00;0.00;;;11.60;99.90;;;;;;5114770;28;20055;-79
2022/10/21 00:06:20;;;;;;;0.00;0.00;;;11.50;99.90;;;;;;5114731;28;20096;-79
2022/10/21 00:08:46;;;;;;;0.32;0.32;;;11.50;99.90;;;;;;5114916;28;20133;-79
2022/10/21 00:11:12;;;;;;;0.00;0.00;;;11.50;99.90;;;;;;5097511;28;20092;-79
2022/10/21 00:13:38;;;;;;;1.27;0.63;;;11.50;99.90;;;;;;5097648;28;20055;-79
2022/10/21 00:16:13;;;;;;;0.10;0.03;;;11.50;99.90;;;;;;5114438;28;20177;-79
2022/10/21 00:18:41;;;;;;;0.20;0.20;;;11.50;99.90;;;;;;5114456;28;20055;-79
2022/10/21 00:21:13;;;;;;;0.00;0.00;;;11.60;99.90;;;;;;5115312;28;20054;-79
2022/10/21 00:23:38;;;;;;;0.08;0.08;;;11.50;99.90;;;;;;5114762;28;20154;-79
2022/10/21 00:26:04;;;;;;;1.90;0.20;;;11.60;99.90;;;;;;5114467;28;20482;-79
2022/10/21 00:28:31;;;;;;;0.10;0.10;;;11.60;99.90;;;;;;5097447;28;20045;-79
2022/10/21 00:30:58;;;;;;;0.10;0.00;;;11.70;99.90;;;;;;5114095;28;20047;-79
2022/10/21 00:33:25;;;;;;;0.00;0.00;;;11.60;99.90;;;;;;5114235;28;20067;-79
2022/10/21 00:35:58;;;;;;;0.55;0.47;;;11.60;99.90;;;;;;5097924;28;20067;-79
2022/10/21 00:38:24;;;;;;;0.10;0.10;;;11.60;99.90;;;;;;5114018;28;20092;-79
2022/10/21 00:40:50;;;;;;;0.00;0.00;;;11.50;99.90;;;;;;5114001;28;20048;-79
2022/10/21 00:43:17;;;;;;;0.15;0.10;;;11.50;99.90;;;;;;5114252;28;20042;-79
2022/10/21 00:45:43;;;;;;;0.00;0.00;;;11.50;99.90;;;;;;5097031;28;20048;-79
2022/10/21 00:48:18;;;;;;;0.00;0.00;;;11.40;99.90;;;;;;5114057;28;20038;-79
2022/10/21 00:50:59;;;;;;;0.25;0.25;;;11.40;99.90;;;;;;5113991;28;20123;-79
2022/10/21 00:53:25;;;;;;;0.98;0.00;;;11.30;99.90;;;;;;5096942;28;20466;-79
2022/10/21 00:55:57;;;;;;;0.90;0.35;;;11.30;99.90;;;;;;5113630;28;20130;-79
2022/10/21 00:58:27;;;;;;;0.00;0.00;;;11.30;99.90;;;;;;5097033;28;20090;-79
2022/10/21 01:00:56;;;;;;;0.00;0.00;;;11.30;99.90;;;;;;5097115;28;20047;-79
2022/10/21 01:03:25;;;;;;;0.10;0.10;;;11.30;99.90;;;;;;5114251;28;20069;-79
2022/10/21 01:05:51;;;;;;;0.00;0.00;;;11.30;99.90;;;;;;5113780;28;20550;-79
2022/10/21 01:08:18;;;;;;;0.00;0.00;;;11.30;99.90;;;;;;5096805;28;20494;-79
2022/10/21 01:10:44;;;;;;;0.00;0.00;;;11.40;99.90;;;;;;5096299;28;20558;-79
2022/10/21 01:13:52;;;;;;;0.00;0.00;;;11.40;99.90;;;;;;5113772;28;20070;-79
2022/10/21 01:16:39;;;;;;;0.25;0.08;;;11.30;99.90;;;;;;5074931;28;20097;-79
2022/10/21 01:19:53;;;;;;;23.17;1.23;;;11.30;99.90;;;;;;5075290;28;20060;-79
2022/10/21 01:22:53;;;;;;;0.20;0.20;;;11.30;99.90;;;;;;4999373;28;20162;-79
2022/10/21 01:25:27;;;;;;;0.00;0.00;;;11.30;99.90;;;;;;4957295;28;20093;-79
2022/10/21 01:28:07;;;;;;;0.15;0.10;;;11.30;99.90;;;;;;4941525;28;20065;-79
2022/10/21 01:30:36;;;;;;;0.00;0.00;;;11.30;99.90;;;;;;4941217;28;20077;-79
2022/10/21 01:33:14;;;;;;;0.00;0.00;;;11.30;99.90;;;;;;4973190;28;20053;-79
2022/10/21 01:35:59;;;;;;;0.00;0.00;;;11.30;99.90;;;;;;4941578;28;20059;-79
2022/10/21 01:38:49;;;;;;;0.00;0.00;;;11.30;99.90;;;;;;4973000;28;20058;-79
2022/10/21 01:41:32;;;;;;;0.43;0.43;;;11.30;99.90;;;;;;4941178;28;20138;-79
2022/10/21 01:44:35;;;;;;;0.00;0.00;;;11.30;99.90;;;;;;4940993;28;20145;-79
2022/10/21 01:47:12;;;;;;;0.05;0.00;;;11.30;99.90;;;;;;4940832;28;20058;-80
2022/10/21 01:49:45;;;;;;;0.55;0.00;;;11.30;99.90;;;;;;4978674;28;20109;-81
2022/10/21 01:52:11;;;;;;;0.00;0.00;;;11.40;99.90;;;;;;4992629;28;20062;-80
2022/10/21 01:54:42;;;;;;;0.65;0.10;;;11.40;99.90;;;;;;4976184;28;20064;-81
2022/10/21 01:57:11;;;;;;;0.00;0.00;;;11.50;99.90;;;;;;4983447;28;20485;-81
2022/10/21 01:59:38;;;;;;;0.00;0.00;;;11.60;99.90;;;;;;5031999;28;20049;-81
2022/10/21 02:02:07;;;;;;;0.00;0.00;;;11.60;99.90;;;;;;5096545;28;20485;-81
2022/10/21 02:04:34;;;;;;;1.10;0.20;;;11.70;99.90;;;;;;5113306;28;20051;-81
2022/10/21 02:07:00;;;;;;;0.00;0.00;;;11.70;99.90;;;;;;5113233;28;20055;-82
2022/10/21 02:09:26;;;;;;;0.45;0.15;;;11.70;99.90;;;;;;5096270;28;20035;-81
2022/10/21 02:11:57;;;;;;;0.00;0.00;;;11.70;99.90;;;;;;5096488;28;20101;-82
2022/10/21 02:14:33;;;;;;;0.05;0.05;;;11.80;99.90;;;;;;5113601;28;20047;-80
2022/10/21 02:16:59;;;;;;;1.77;0.43;;;11.80;99.90;;;;;;5096760;28;20051;-82
2022/10/21 02:19:25;;;;;;;0.35;0.25;;;11.90;99.90;;;;;;5113435;28;20065;-82
2022/10/21 02:21:54;;;;;;;0.73;0.08;;;12.00;99.90;;;;;;5096170;28;20050;-83
2022/10/21 02:24:39;;;;;;;0.20;0.20;;;12.10;99.90;;;;;;5096333;28;20054;-82
2022/10/21 02:27:04;;;;;;;;;;;12.10;99.90;;;;;;5113890;28;20051;-82
2022/10/21 02:29:37;;;;;;;0.25;0.25;;;12.10;99.90;;;;;;5116201;28;19923;-83
2022/10/21 02:32:08;;;;;;;0.98;0.55;;;12.20;99.90;;;;;;5116616;28;20410;-83
2022/10/21 02:34:50;;;;;;;0.00;0.00;;;12.20;99.90;;;;;;5117211;28;20490;-83
2022/10/21 02:37:23;;;;;;;0.00;0.00;;;12.30;99.90;;;;;;5117249;28;20088;-83
2022/10/21 02:40:02;;;;;;;0.10;0.00;;;12.30;99.90;;;;;;5100261;28;20479;-82
2022/10/21 02:42:32;;;;;;;0.00;0.00;;;12.30;99.90;;;;;;5099945;28;20054;-82
2022/10/21 02:45:01;;;;;;;0.00;0.00;;;12.30;99.90;;;;;;5117078;28;20043;-81
2022/10/21 02:47:28;;;;;;;0.00;0.00;;;12.40;99.90;;;;;;5100369;28;20065;-81
2022/10/21 02:49:54;;;;;;;0.00;0.00;;;12.40;99.90;;;;;;5099681;28;20380;-81
2022/10/21 02:52:20;;;;;;;0.00;0.00;;;12.40;99.90;;;;;;5099995;28;20032;-83
2022/10/21 02:54:45;;;;;;;0.00;0.00;;;12.50;99.90;;;;;;5100055;28;20131;-83
2022/10/21 02:57:11;;;;;;;0.00;0.00;;;12.50;99.90;;;;;;5099795;28;20047;-84
2022/10/21 02:59:36;;;;;;;0.00;0.00;;;12.40;99.90;;;;;;5099553;28;20073;-85
2022/10/21 03:02:02;;;;;;;0.10;0.10;;;12.40;99.90;;;;;;5099532;28;20130;-85
2022/10/21 03:04:28;;;;;;;0.00;0.00;;;12.50;99.90;;;;;;5116163;28;20050;-84
2022/10/21 03:06:53;;;;;;;0.15;0.00;;;12.50;99.90;;;;;;5116229;28;20055;-84
2022/10/21 03:09:19;;;;;;;0.00;0.00;;;12.40;99.90;;;;;;5116425;28;20043;-84
2022/10/21 03:11:45;;;;;;;0.00;0.00;;;12.40;99.90;;;;;;5099108;28;20055;-83
2022/10/21 03:14:10;;;;;;;0.00;0.00;;;12.40;99.90;;;;;;5099358;28;20055;-83
2022/10/21 03:16:36;;;;;;;0.00;0.00;;;12.20;99.90;;;;;;5098923;28;20395;-83
2022/10/21 03:19:02;;;;;;;0.00;0.00;;;12.30;99.90;;;;;;5116123;28;20048;-83
2022/10/21 03:21:27;;;;;;;0.15;0.10;;;12.20;99.90;;;;;;5099059;28;20047;-83
2022/10/21 03:23:53;;;;;;;0.00;0.00;;;12.20;99.90;;;;;;5116165;28;20040;-82
2022/10/21 03:26:18;;;;;;;0.00;0.00;;;12.20;99.90;;;;;;5115869;28;20040;-82
2022/10/21 03:28:44;;;;;;;0.00;0.00;;;12.20;99.90;;;;;;5115547;28;20047;-82
2022/10/21 03:31:10;;;;;;;0.00;0.00;;;12.20;99.90;;;;;;5115192;28;20059;-83
2022/10/21 03:33:35;;;;;;;0.00;0.00;;;12.10;99.90;;;;;;5098752;28;20043;-82
2022/10/21 03:36:01;;;;;;;0.10;0.00;;;12.10;99.90;;;;;;5115820;28;20099;-82
2022/10/21 03:38:26;;;;;;;0.00;0.00;;;12.00;99.90;;;;;;5115405;28;20036;-82
2022/10/21 03:40:52;;;;;;;0.03;0.03;;;12.00;99.90;;;;;;5115260;28;20130;-82
2022/10/21 03:43:18;;;;;;;0.00;0.00;;;12.00;99.90;;;;;;5115785;28;20040;-82
2022/10/21 03:45:43;;;;;;;0.00;0.00;;;11.90;99.90;;;;;;5098414;28;20193;-82
2022/10/21 03:48:09;;;;;;;0.00;0.00;;;11.80;99.90;;;;;;5098346;28;20050;-83
2022/10/21 03:50:34;;;;;;;0.00;0.00;;;11.80;99.90;;;;;;5099010;28;20383;-82
2022/10/21 03:53:00;;;;;;;0.00;0.00;;;11.80;99.90;;;;;;5115488;28;20391;-82
2022/10/21 03:55:26;;;;;;;0.00;0.00;;;11.80;99.90;;;;;;5097887;28;20061;-82
2022/10/21 03:57:52;;;;;;;0.00;0.00;;;11.80;99.90;;;;;;5115334;28;20039;-82
2022/10/21 04:00:18;;;;;;;0.00;0.00;;;11.80;99.90;;;;;;5098316;28;20047;-82
2022/10/21 04:02:44;;;;;;;0.08;0.00;;;11.80;99.90;;;;;;5115934;28;20380;-82
2022/10/21 04:05:10;;;;;;;0.00;0.00;;;11.90;99.90;;;;;;5098087;28;20135;-82
2022/10/21 04:07:36;;;;;;;0.00;0.00;;;11.80;99.90;;;;;;5114740;28;20088;-83
2022/10/21 04:10:03;;;;;;;0.25;0.25;;;11.90;99.90;;;;;;5097674;28;20433;-82
2022/10/21 04:12:28;;;;;;;0.00;0.00;;;11.80;99.90;;;;;;5097898;28;20138;-82
2022/10/21 04:14:54;;;;;;;0.00;0.00;;;11.80;99.90;;;;;;5097775;28;20146;-83
2022/10/21 04:17:20;;;;;;;0.00;0.00;;;11.80;99.90;;;;;;5114845;28;20039;-82
2022/10/21 04:19:45;;;;;;;0.00;0.00;;;11.70;99.90;;;;;;5097776;28;20532;-82
2022/10/21 04:22:11;;;;;;;0.00;0.00;;;11.70;99.90;;;;;;5097598;28;20554;-83
2022/10/21 04:24:36;;;;;;;0.00;0.00;;;11.60;99.90;;;;;;5114665;28;20498;-82
2022/10/21 04:27:02;;;;;;;0.10;0.10;;;11.60;99.90;;;;;;5115344;28;20384;-83
2022/10/21 04:29:28;;;;;;;0.10;0.08;;;11.70;99.90;;;;;;5097366;28;20487;-83
2022/10/21 04:31:53;;;;;;;0.00;0.00;;;11.70;99.90;;;;;;5114003;28;20058;-83
2022/10/21 04:34:19;;;;;;;0.00;0.00;;;11.70;99.90;;;;;;5114472;28;20083;-83
2022/10/21 04:36:45;;;;;;;0.00;0.00;;;11.60;99.90;;;;;;5097584;28;20036;-83
2022/10/21 04:39:10;;;;;;;1.17;0.00;;;11.60;99.90;;;;;;5114065;28;20044;-83
2022/10/21 04:41:36;;;;;;;0.10;0.10;;;11.70;99.90;;;;;;5097800;28;20400;-83
2022/10/21 04:44:02;;;;;;;0.00;0.00;;;11.70;99.90;;;;;;5097325;28;20394;-83
2022/10/21 04:46:27;;;;;;;0.00;0.00;;;11.60;99.90;;;;;;5097366;28;20051;-83
2022/10/21 04:48:53;;;;;;;0.55;0.15;;;11.50;99.90;;;;;;5114199;28;20399;-82
2022/10/21 04:51:19;;;;;;;0.00;0.00;;;11.50;99.90;;;;;;5095897;28;20042;-83
2022/10/21 04:53:44;;;;;;;0.00;0.00;;;11.50;99.90;;;;;;5114072;28;20055;-83
2022/10/21 04:56:10;;;;;;;0.10;0.10;;;11.60;99.90;;;;;;5096890;28;20044;-83
2022/10/21 04:58:36;;;;;;;0.00;0.00;;;11.60;99.90;;;;;;5114177;28;20039;-83
2022/10/21 05:01:02;;;;;;;0.35;0.35;;;11.50;99.90;;;;;;5097073;28;20039;-83
2022/10/21 05:03:27;;;;;;;0.00;0.00;;;11.50;99.90;;;;;;5113996;28;20046;-82
2022/10/21 05:05:53;;;;;;;1.58;0.70;;;11.60;99.90;;;;;;5097007;28;20047;-82
2022/10/21 05:08:19;;;;;;;0.00;0.00;;;11.50;99.90;;;;;;5113709;28;20035;-83
2022/10/21 05:10:45;;;;;;;0.03;0.03;;;11.50;99.90;;;;;;5114308;28;20039;-83
2022/10/21 05:13:12;;;;;;;0.10;0.10;;;11.50;99.90;;;;;;5113707;28;20525;-82
2022/10/21 05:15:37;;;;;;;0.00;0.00;;;11.30;99.90;;;;;;5113531;28;20450;-83
2022/10/21 05:18:03;;;;;;;0.88;0.32;;;11.40;99.90;;;;;;5113569;28;20052;-83
2022/10/21 05:20:29;;;;;;;0.20;0.17;;;11.40;99.90;;;;;;5096719;28;20044;-82
2022/10/21 05:22:55;;;;;;;0.20;0.20;;;11.40;99.90;;;;;;5113543;28;20043;-82
2022/10/21 05:25:20;;;;;;;0.13;0.13;;;11.30;99.90;;;;;;5113541;28;20043;-83
2022/10/21 05:27:46;;;;;;;0.20;0.20;;;11.30;99.90;;;;;;5113974;28;20078;-83
2022/10/21 05:30:13;;;;;;;0.20;0.10;;;11.30;99.90;;;;;;5096379;28;20408;-82
2022/10/21 05:32:39;;;;;;;0.00;0.00;;;11.30;99.90;;;;;;5096761;28;20047;-82
2022/10/21 05:35:05;;;;;;;0.03;0.03;;;11.20;99.90;;;;;;5113462;28;20081;-83
2022/10/21 05:37:32;;;;;;;0.00;0.00;;;11.30;99.90;;;;;;5113506;28;20043;-83
2022/10/21 05:39:57;;;;;;;0.00;0.00;;;11.20;99.90;;;;;;5096309;28;20063;-82
2022/10/21 05:42:23;;;;;;;0.17;0.00;;;11.20;99.90;;;;;;5096541;28;20040;-83
2022/10/21 05:44:49;;;;;;;0.17;0.17;;;11.20;99.90;;;;;;5096315;28;20151;-82
2022/10/21 05:47:14;;;;;;;0.00;0.00;;;11.20;99.90;;;;;;5113060;28;20513;-82
2022/10/21 05:49:40;;;;;;;0.00;0.00;;;11.20;99.90;;;;;;5096448;28;20055;-82
2022/10/21 05:52:06;;;;;;;0.08;0.00;;;11.20;99.90;;;;;;5096305;28;20130;-82
2022/10/21 05:54:31;;;;;;;0.00;0.00;;;11.20;99.90;;;;;;5096397;28;20040;-82
2022/10/21 05:56:57;;;;;;;0.08;0.08;;;11.10;99.90;;;;;;5113295;28;20043;-82
2022/10/21 05:59:24;;;;;;;0.00;0.00;;;11.10;99.90;;;;;;5096345;28;20039;-82
2022/10/21 06:01:50;;;;;;;0.00;0.00;;;11.10;99.90;;;;;;5113580;28;20062;-82
2022/10/21 06:04:15;;;;;;;0.17;0.17;;;11.00;99.90;;;;;;5117477;28;20471;-82
2022/10/21 06:06:41;;;;;;;0.00;0.00;;;11.10;99.90;;;;;;5100265;28;20058;-82
2022/10/21 06:09:07;;;;;;;0.20;0.20;;;11.10;99.90;;;;;;5117378;28;20499;-82
2022/10/21 06:11:32;;;;;;;0.80;0.30;;;11.10;99.90;;;;;;5099682;28;20048;-82
2022/10/21 06:13:58;;;;;;;0.20;0.17;;;11.10;99.90;;;;;;5100300;28;20138;-82
2022/10/21 06:16:24;;;;;;;0.00;0.00;;;11.10;99.90;;;;;;5099894;28;20052;-82
2022/10/21 06:18:50;;;;;;;0.00;0.00;;;11.10;99.90;;;;;;5100145;28;20145;-82
2022/10/21 06:21:15;;;;;;;0.00;0.00;;;11.10;99.90;;;;;;5100076;28;20399;-82
2022/10/21 06:23:41;;;;;;;0.22;0.22;;;11.10;99.90;;;;;;5117188;28;20044;-82
2022/10/21 06:26:10;;;;;;;0.00;0.00;;;11.10;99.90;;;;;;5117523;28;20482;-82
2022/10/21 06:28:38;;;;;;;0.00;0.00;;;11.00;99.90;;;;;;5117177;28;20126;-82
2022/10/21 06:31:05;;;;;;;0.00;0.00;;;11.10;99.90;;;;;;5099354;28;20058;-82
2022/10/21 06:33:31;;;;;;;0.00;0.00;;;11.10;99.90;;;;;;5116882;28;20044;-82
2022/10/21 06:35:57;;;;;;;0.00;0.00;;;11.20;99.90;;;;;;5099474;28;20479;-82
2022/10/21 06:38:24;;;;;;;0.00;0.00;;;11.20;99.90;;;;;;5116797;28;20040;-82
2022/10/21 06:40:50;;;;;;;0.00;0.00;;;11.20;99.90;;;;;;5116761;28;20507;-82
2022/10/21 06:43:16;;;;;;;0.00;0.00;;;11.20;99.90;;;;;;5116824;28;20055;-82
2022/10/21 06:45:42;;;;;;;0.03;0.03;;;11.30;99.90;;;;;;5099553;28;20393;-82
2022/10/21 06:48:08;;;;;;;0.00;0.00;;;11.30;99.90;;;;;;5099721;28;20390;-82
2022/10/21 06:50:35;;;;;;;0.00;0.00;;;11.30;99.90;;;;;;5116522;28;20146;-82
2022/10/21 06:53:01;;;;;;;0.05;0.00;;;11.40;99.90;;;;;;5116934;28;20082;-81
2022/10/21 06:55:26;;;;;;;0.00;0.00;;;11.50;99.90;;;;;;5099154;28;20517;-81
2022/10/21 06:57:52;;;;;;;0.00;0.00;;;11.50;99.90;;;;;;5116315;28;20043;-82
2022/10/21 07:00:18;;;;;;;0.30;0.30;;;11.50;99.90;;;;;;5116170;28;20475;-82
2022/10/21 07:02:43;;;;;;;0.00;0.00;;;11.60;99.90;;;;;;5099315;28;20487;-82
2022/10/21 07:05:09;;;;;;;0.15;0.00;;;11.60;99.90;;;;;;5116140;28;20090;-81
2022/10/21 07:07:35;;;;;;;0.10;0.10;;;11.70;99.90;;;;;;5116026;28;20040;-82
2022/10/21 07:10:00;;;;;;;0.00;0.00;;;11.70;99.90;;;;;;5115904;28;20046;-82
2022/10/21 07:12:29;;;;;;;0.00;0.00;;;11.80;99.90;;;;;;5099100;28;20088;-81
2022/10/21 07:14:54;;;;;;;0.00;0.00;;;11.90;99.90;;;;;;5097984;28;20047;-81
2022/10/21 07:17:20;;;;;;;0.52;0.10;;;12.10;99.90;;;;;;5098593;28;20046;-81
2022/10/21 07:19:46;;;;;;;0.00;0.00;;;12.10;99.90;;;;;;5115761;28;20482;-82
2022/10/21 07:22:16;;;;;;;1.23;0.40;;;12.10;99.90;;;;;;5098840;28;20125;-81
2022/10/21 07:24:42;;;;;;;0.52;0.40;;;12.20;99.90;;;;;;5115520;28;20126;-81
2022/10/21 07:27:08;;;;;;;0.55;0.28;;;12.30;99.90;;;;;;5098663;28;20138;-82
2022/10/21 07:29:33;;;;;;;0.00;0.00;;;12.40;99.90;;;;;;5098374;28;20411;-81
2022/10/21 07:31:59;;;;;;;0.00;0.00;;;12.40;99.90;;;;;;5115063;28;20052;-81
2022/10/21 07:34:25;;;;;;;0.03;0.03;;;12.60;99.90;;;;;;5115279;28;20048;-81
2022/10/21 07:36:51;;;;;;;0.20;0.20;;;12.70;99.90;;;;;;5098487;28;20047;-81
2022/10/21 07:39:24;;;;;;;0.00;0.00;;;12.90;99.90;;;;;;5115370;28;20145;-81
2022/10/21 07:41:55;;;;;;;0.00;0.00;;;13.00;99.90;;;;;;5115393;28;20108;-81
2022/10/21 07:44:22;;;;;;;0.28;0.17;;;13.20;99.90;;;;;;5098509;28;20048;-81
2022/10/21 07:46:49;;;;;;;0.05;0.00;;;13.20;99.90;;;;;;5097984;28;20547;-81
2022/10/21 07:49:16;;;;;;;0.00;0.00;;;13.30;99.90;;;;;;5115239;28;20043;-81
2022/10/21 07:51:44;;;;;;;0.00;0.00;;;13.30;99.90;;;;;;5115636;28;20360;-81
2022/10/21 07:54:10;;;;;;;0.30;0.10;;;13.40;99.90;;;;;;5115479;28;20395;-81
2022/10/21 07:56:42;;;;;;;0.25;0.25;;;13.50;99.90;;;;;;5114826;28;20514;-81
2022/10/21 07:59:09;;;;;;;0.08;0.05;;;13.70;99.90;;;;;;5097985;28;20044;-81
2022/10/21 08:01:35;;;;;;;0.50;0.43;;;13.70;99.90;;;;;;5097958;28;20039;-81
2022/10/21 08:04:01;;;;;;;0.63;0.35;;;13.80;99.90;;;;;;5115104;28;20127;-81
2022/10/21 08:06:27;;;;;;;0.17;0.17;;;14.00;99.90;;;;;;5097889;28;20395;-81
2022/10/21 08:08:57;;;;;;;0.00;0.00;;;14.10;99.90;;;;;;5114902;28;20131;-81
2022/10/21 08:11:25;;;;;;;7.15;0.85;;;14.30;99.90;;;;;;5097644;28;20044;-81
2022/10/21 08:13:51;;;;;;;0.20;0.20;;;14.40;99.90;;;;;;5114692;28;20076;-81
2022/10/21 08:16:17;;;;;;;0.00;0.00;;;14.60;99.90;;;;;;5114665;28;20054;-81
2022/10/21 08:18:43;;;;;;;0.00;0.00;;;14.60;99.90;;;;;;5097827;28;20059;-81
2022/10/21 08:21:09;;;;;;;0.00;0.00;;;14.60;99.90;;;;;;5097618;28;20136;-81
2022/10/21 08:23:35;;;;;;;0.95;0.15;;;14.80;99.90;;;;;;5114601;28;20047;-80
2022/10/21 08:26:00;;;;;;;0.00;0.00;;;15.00;99.90;;;;;;5097360;28;20055;-81
2022/10/21 08:28:28;;;;;;;2.22;0.70;;;15.20;99.90;;;;;;5097364;28;20048;-80
2022/10/21 08:31:05;;;;;;;0.15;0.10;;;15.50;99.90;;;;;;5096980;28;20521;-80
2022/10/21 08:33:31;;;;;;;0.73;0.00;;;15.60;99.90;;;;;;5097613;28;20051;-80
2022/10/21 08:35:57;;;;;;;1.77;0.20;;;15.60;99.90;;;;;;5114330;28;20050;-80
2022/10/21 08:38:22;;;;;;;0.00;0.00;;;15.50;99.90;;;;;;5097089;28;20403;-80
2022/10/21 08:40:49;;;;;;;0.35;0.35;;;15.40;99.90;;;;;;5097187;28;20082;-80
2022/10/21 08:43:32;;;;;;;0.10;0.08;;;15.30;99.90;;;;;;5097485;28;20066;-80
2022/10/21 08:46:12;;;;;;;0.00;0.00;;;15.20;99.90;;;;;;5114061;28;20554;-80
2022/10/21 08:48:54;;;;;;;0.10;0.10;;;15.20;99.90;;;;;;5114153;28;20131;-80
2022/10/21 08:51:32;;;;;;;0.00;0.00;;;15.30;99.90;;;;;;5113726;28;20048;-80
2022/10/21 08:54:03;;;;;;;0.20;0.13;;;15.40;99.90;;;;;;5097122;28;20097;-80
2022/10/21 08:56:30;;;;;;;0.20;0.20;;;15.40;99.90;;;;;;5097027;28;20511;-80
2022/10/21 08:58:56;;;;;;;0.00;0.00;;;15.40;99.90;;;;;;5114183;28;20364;-80
2022/10/21 09:01:41;;;;;;;0.00;0.00;;;15.40;99.90;;;;;;5113988;28;20050;-80
2022/10/21 09:04:17;;;;;;;0.20;0.20;;;15.40;99.90;;;;;;5113877;28;20047;-80
2022/10/21 09:07:07;;;;;;;0.15;0.15;;;15.50;99.90;;;;;;5096810;28;20104;-80
2022/10/21 09:09:33;;;;;;;0.00;0.00;;;15.70;99.90;;;;;;5113441;28;20483;-80
2022/10/21 09:12:12;;;;;;;0.00;0.00;;;15.90;99.90;;;;;;5096565;28;20104;-80
2022/10/21 09:15:05;;;;;;;0.32;0.10;;;16.10;99.90;;;;;;5097371;28;20391;-80
2022/10/21 09:18:04;;;;;;;0.43;0.30;;;16.40;99.90;;;;;;5113987;28;20112;-80
2022/10/21 09:20:58;;;;;;;0.32;0.03;;;16.50;99.90;;;;;;5096201;28;20067;-80
2022/10/21 09:23:55;;;;;;;0.28;0.28;;;16.70;99.90;;;;;;5113420;28;20558;-80
2022/10/21 09:26:42;;;;;;;0.10;0.10;;;16.90;99.90;;;;;;5113654;28;20153;-80
2022/10/21 09:29:30;;;;;;;0.32;0.30;;;17.00;99.90;;;;;;5113606;28;20043;-80
2022/10/21 09:32:09;;;;;;;0.13;0.13;;;17.10;99.90;;;;;;5096464;28;20142;-80
2022/10/21 09:34:44;;;;;;;0.10;0.10;;;17.10;99.90;;;;;;5113339;28;20047;-80
2022/10/21 09:37:35;;;;;;;0.35;0.22;;;17.00;99.90;;;;;;5112784;28;20391;-80
2022/10/21 09:40:16;;;;;;;0.40;0.22;;;16.80;99.90;;;;;;5096232;28;20059;-80
2022/10/21 09:42:43;;;;;;;0.65;0.28;;;16.70;99.90;;;;;;5113390;28;20134;-80
2022/10/21 09:45:49;;;;;;;0.08;0.00;;;16.70;99.90;;;;;;5113270;28;20044;-80
2022/10/21 09:48:18;;;;;;;1.00;0.38;;;16.70;99.90;;;;;;5058445;28;20056;-81
2022/10/21 09:50:58;;;;;;;0.63;0.32;;;16.70;99.90;;;;;;5075108;28;20128;-80
2022/10/21 09:53:30;;;;;;;0.15;0.13;;;16.70;99.90;;;;;;5075075;28;20107;-80
2022/10/21 09:56:02;;;;;;;0.00;0.00;;;16.60;99.90;;;;;;5075051;28;20056;-80
2022/10/21 09:58:42;;;;;;;0.08;0.08;;;16.60;99.90;;;;;;5074748;28;20103;-80
2022/10/21 10:01:18;;;;;;;0.05;0.05;;;16.50;99.90;;;;;;5075000;28;20047;-80
2022/10/21 10:03:49;;;;;;;0.13;0.13;;;16.50;99.90;;;;;;5074923;28;20044;-80
2022/10/21 10:06:31;;;;;;;0.00;0.00;;;16.40;99.90;;;;;;5074903;28;20127;-80
2022/10/21 10:09:06;;;;;;;0.63;0.32;;;16.40;99.90;;;;;;5058045;28;20503;-80
2022/10/21 10:11:31;;;;;;;0.00;0.00;;;16.40;99.90;;;;;;5074865;28;20054;-80
2022/10/21 10:14:15;;;;;;;0.00;0.00;;;16.40;99.90;;;;;;5074817;28;20483;-80
2022/10/21 10:16:40;;;;;;;0.35;0.20;;;16.30;99.90;;;;;;5073748;28;20429;-80
2022/10/21 10:19:22;;;;;;;0.00;0.00;;;16.30;99.90;;;;;;5074023;28;20067;-80
2022/10/21 10:22:13;;;;;;;0.00;0.00;;;16.40;99.90;;;;;;5057862;28;20036;-80
2022/10/21 10:24:41;;;;;;;0.57;0.10;;;16.30;99.90;;;;;;5075387;28;20058;-80
2022/10/21 10:27:18;;;;;;;0.00;0.00;;;16.30;99.90;;;;;;5095853;28;20051;-80
2022/10/21 10:29:51;;;;;;;0.00;0.00;;;16.30;99.90;;;;;;5112944;28;20509;-80
2022/10/21 10:32:17;;;;;;;0.35;0.35;;;16.30;99.90;;;;;;5112632;28;20067;-80
2022/10/21 10:34:54;;;;;;;0.00;0.00;;;16.30;99.90;;;;;;5112854;28;20455;-80
2022/10/21 10:37:45;;;;;;;0.00;0.00;;;16.30;99.90;;;;;;5112672;28;20040;-80
2022/10/21 10:40:20;;;;;;;0.00;0.00;;;16.30;99.90;;;;;;5095846;28;20486;-80
2022/10/21 10:42:46;;;;;;;3.85;0.30;;;16.30;99.90;;;;;;5112910;28;20043;-80
2022/10/21 10:45:20;;;;;;;0.63;0.28;;;16.30;99.90;;;;;;5112841;28;20380;-80
2022/10/21 10:47:54;;;;;;;0.00;0.00;;;16.40;99.90;;;;;;5095561;28;20059;-80
2022/10/21 10:50:41;;;;;;;0.00;0.00;;;16.30;99.90;;;;;;5098309;28;20563;-80
2022/10/21 10:53:32;;;;;;;0.17;0.17;;;16.40;99.90;;;;;;5116531;28;20048;-80
2022/10/21 10:56:14;;;;;;;1.08;0.40;;;16.40;99.90;;;;;;5116308;28;20043;-80
2022/10/21 10:58:46;;;;;;;0.00;0.00;;;16.40;99.90;;;;;;5099035;28;20101;-80
2022/10/21 11:01:20;;;;;;;1.15;0.65;;;16.40;99.90;;;;;;5116550;28;20054;-80
2022/10/21 11:03:59;;;;;;;0.22;0.20;;;16.40;99.90;;;;;;5099244;28;20058;-80
2022/10/21 11:06:35;;;;;;;0.00;0.00;;;16.40;99.90;;;;;;5116187;28;20051;-80
2022/10/21 11:09:02;;;;;;;0.00;0.00;;;16.50;99.90;;;;;;5099375;28;20054;-80
2022/10/21 11:11:45;;;;;;;1.65;0.45;;;16.60;99.90;;;;;;5098742;28;20056;-80
2022/10/21 11:14:14;;;;;;;0.10;0.10;;;16.50;99.90;;;;;;5115983;28;20551;-80
2022/10/21 11:16:45;;;;;;;0.17;0.10;;;16.50;99.90;;;;;;5098895;28;20101;-80
2022/10/21 11:19:52;;;;;;;0.28;0.28;;;16.50;99.90;;;;;;5115770;28;20046;-80
2022/10/21 11:22:19;;;;;;;0.30;0.30;;;16.50;99.90;;;;;;5077817;28;20125;-80
2022/10/21 11:24:53;;;;;;;0.82;0.28;;;16.50;99.90;;;;;;5077384;28;20052;-80
2022/10/21 11:27:42;;;;;;;0.10;0.10;;;16.50;99.90;;;;;;5077503;28;20496;-80
2022/10/21 11:30:18;;;;;;;0.05;0.05;;;16.50;99.90;;;;;;5077787;28;20123;-80
2022/10/21 11:33:13;;;;;;;0.00;0.00;;;16.50;99.90;;;;;;5076997;28;20063;-80
2022/10/21 11:35:56;;;;;;;0.20;0.13;;;16.50;99.90;;;;;;5077387;28;20130;-80
2022/10/21 11:38:46;;;;;;;0.00;0.00;;;16.60;99.90;;;;;;5076946;28;20061;-80
2022/10/21 11:41:24;;;;;;;1.45;0.40;;;16.60;99.90;;;;;;5077354;28;20052;-80
2022/10/21 11:44:16;;;;;;;0.00;0.00;;;16.50;99.90;;;;;;5077104;28;20044;-80
2022/10/21 11:47:04;;;;;;;0.00;0.00;;;16.60;99.90;;;;;;5077077;28;20051;-80
2022/10/21 11:49:54;;;;;;;0.00;0.00;;;16.60;99.90;;;;;;5077255;28;20048;-80
2022/10/21 11:52:44;;;;;;;0.10;0.10;;;16.60;99.90;;;;;;5060388;28;20109;-80
2022/10/21 11:55:30;;;;;;;0.00;0.00;;;16.70;99.90;;;;;;5060173;28;20051;-80
2022/10/21 11:58:24;;;;;;;0.20;0.20;;;16.70;99.90;;;;;;5077622;28;20066;-80
2022/10/21 12:01:13;;;;;;;0.00;0.00;;;16.70;99.90;;;;;;5097710;28;20047;-80
2022/10/21 12:03:54;;;;;;;0.20;0.15;;;16.70;99.90;;;;;;5115174;28;20044;-80
2022/10/21 12:06:33;;;;;;;0.00;0.00;;;16.70;99.90;;;;;;5098269;28;20055;-80
2022/10/21 12:09:04;;;;;;;0.30;0.30;;;16.80;99.90;;;;;;5097999;28;20126;-80
2022/10/21 12:11:42;;;;;;;0.00;0.00;;;16.80;99.90;;;;;;5114888;28;20035;-80
2022/10/21 12:14:49;;;;;;;0.20;0.20;;;16.80;99.90;;;;;;5098311;28;20047;-80
2022/10/21 12:17:18;;;;;;;1.27;0.35;;;16.80;99.90;;;;;;5059182;28;20064;-81
2022/10/21 12:19:57;;;;;;;2.20;0.35;;;16.80;99.90;;;;;;5076457;28;20056;-81
2022/10/21 12:22:25;;;;;;;5.28;0.43;;;16.80;99.90;;;;;;5076223;28;20057;-81
2022/10/21 12:25:00;;;;;;;0.30;0.30;;;16.80;99.90;;;;;;5059679;28;20056;-81
2022/10/21 12:27:39;;;;;;;0.55;0.32;;;16.80;99.90;;;;;;5076443;28;20048;-80
2022/10/21 12:30:35;;;;;;;0.70;0.22;;;16.80;99.90;;;;;;5076143;28;20088;-80
2022/10/21 12:33:46;;;;;;;0.00;0.00;;;16.80;99.90;;;;;;5076202;28;20048;-80
2022/10/21 12:36:24;;;;;;;0.00;0.00;;;16.80;99.90;;;;;;5076205;28;20040;-80
2022/10/21 12:38:51;;;;;;;0.55;0.32;;;16.80;99.90;;;;;;5075138;28;20056;-80
2022/10/21 12:41:22;;;;;;;0.00;0.00;;;16.80;99.90;;;;;;5075644;28;20487;-81
2022/10/21 12:44:01;;;;;;;0.00;0.00;;;16.80;99.90;;;;;;5075491;28;20494;-80
2022/10/21 12:46:47;;;;;;;0.10;0.10;;;16.80;99.90;;;;;;5075950;28;20048;-80
2022/10/21 12:49:22;;;;;;;0.00;0.00;;;16.80;99.90;;;;;;5076004;28;20139;-80
2022/10/21 12:51:57;;;;;;;0.00;0.00;;;16.80;99.90;;;;;;5085415;28;20449;-80
2022/10/21 12:54:30;;;;;;;0.00;0.00;;;16.70;99.90;;;;;;5114297;28;20134;-81
2022/10/21 12:57:02;;;;;;;0.00;0.00;;;16.80;99.90;;;;;;5097081;28;20075;-81
2022/10/21 12:59:34;;;;;;;0.03;0.00;;;16.80;99.90;;;;;;5113980;28;20108;-81
2022/10/21 13:02:09;;;;;;;0.00;0.00;;;16.80;99.90;;;;;;5113946;28;20122;-81
2022/10/21 13:04:34;;;;;;;0.15;0.15;;;16.80;99.90;;;;;;5113865;28;20040;-80
2022/10/21 13:07:11;;;;;;;0.00;0.00;;;16.80;99.90;;;;;;5113708;28;20043;-81
2022/10/21 13:09:37;;;;;;;0.00;0.00;;;16.80;99.90;;;;;;5113872;28;20039;-81
2022/10/21 13:12:08;;;;;;;0.17;0.17;;;16.80;99.90;;;;;;5113253;28;20048;-80